LOWWLGKR

Guest
Details From LOWW - Wien Schwechat
To LGKR - Ioannis Kapodistrias Intl
Flight Number -
Tags Generated
Created
Modified
Stats Distance 531 nm / 983 km
Max Altitude 0 ft / 0 m
Waypoints 4
Social Downloads 2
Likes 0
Share VATSIM

Download

Looking for another format? Having issues loading an existing format? Contact us
Advertisement - Login to hide

Notes

Generated

Route

LOWW HANDY GAR02 LGKR

ID Type Via Altitude (ft/m) Position (lat/lon) Dist (leg/tot) Name
O LOWW APT - 0 / 0 48.11978 / 16.57818 - / 0 nm
HANDY FIX - 0 / 0 44.06758 / 18.26200 253 / 253 nm
GAR02 FIX - 0 / 0 39.63925 / 19.90187 275 / 529 nm
O LGKR APT - 0 / 0 39.61228 / 19.90921 1 / 530 nm

Altitude Profile

Advertisement - Login to hide

Weather


0- 5 10 15 20 25 30 35+ Temperature / °C

Clouds and Precipitation
Forecast for 2018-09-25 00:00 UTC. Updated 6 hours ago

Ground ~20,000 ft ~40,000 ft Winds

LOWW

Details ICAO LOWW (VIE)
Name Vienna International Airport
Region Austria
Timezone Europe/Vienna (UTC+2.0)
Stats Elevation 600 ft / 183 m (AMSL)
Location 48.110100° 16.569600°
Runways 2
Magnetic Variation 4.349° E

METAR

LOWW 250320Z 30015KT 9999 FEW045 08/03 Q1032 NOSIG

Decode

TAF

TAF LOWW 250215Z 2503/2609 32014KT CAVOK TX14/2514Z TN03/2605Z TEMPO 2503/2515 33017G27KT 9999 SCT050 BECMG 2517/2519 30007KT BECMG 2521/2523 VRB02KT

Decode

Departure Runways

ID Width Length Bearing (true/mag) Surface Threshold Overrun Markings Lighting
11 148 ft / 45 m 11,494 ft / 3,503 m 115.99° / 111.64° ASPHALT 0 ft / 0 m 0 ft / 0 m PREC-APP ALSF-I TDZ
16 148 ft / 45 m 11,822 ft / 3,603 m 164.24° / 159.89° ASPHALT 0 ft / 0 m 0 ft / 0 m PREC-APP CENTERLINE ALSF-II REIL-OMNI
29 148 ft / 45 m 11,494 ft / 3,503 m 296.02° / 291.67° ASPHALT 0 ft / 0 m 0 ft / 0 m PREC-APP ALSF-II TDZ REIL-OMNI
34 148 ft / 45 m 11,822 ft / 3,603 m 344.25° / 339.90° ASPHALT 0 ft / 0 m 0 ft / 0 m PREC-APP CENTERLINE ALSF-I TDZ REIL-OMNI

LGKR

Details ICAO LGKR (CFU)
Name IOANNIS KAPODISTRIAS INTL
Region Greece
Timezone Europe/Athens (UTC+3.0)
Stats Elevation 0 ft / 0 m (AMSL)
Location 39.602300° 19.912000°
Runways 1
Magnetic Variation 4.176° E

METAR

LGKR 250320Z 29006KT 9999 FEW020 SCT040 BKN080 22/21 Q1015 NOSIG

Decode

TAF

TAF LGKR 242300Z 2500/2524 35010KT 9999 FEW018 SCT080 TEMPO 2512/2515 24010KT BECMG 2519/2521 07018KT

Decode

Destination Runways

ID Width Length Bearing (true/mag) Surface Threshold Overrun Markings Lighting
17 148 ft / 45 m 7,604 ft / 2,318 m 168.78° / 164.61° ASPHALT 1,342 ft / 409 m 0 ft / 0 m PREC-APP EDGE THRESHOLD ALSF-I
35 148 ft / 45 m 7,604 ft / 2,318 m 348.79° / 344.61° ASPHALT 0 ft / 0 m 0 ft / 0 m PREC-APP EDGE THRESHOLD SALS REIL-OMNI

Popular Alternatives